Time;durP1;ratioP1;P1;durP2;ratioP2;P2;SDS_P1;SDS_P2;PMS_P1;PMS_P2;Temp;Humidity;BMP_temperature;BMP_pressure;BME280_temperature;BME280_humidity;BME280_pressure;Samples;Min_cycle;Max_cycle;Signal;HPM_P1;HPM_P2
2021/06/05 00:00:14;;;;;;;14.68;6.28;;;;;;;14.41;67.60;101687.29;1715020;83;25481;-60
2021/06/05 00:02:43;;;;;;;12.98;6.92;;;;;;;14.32;67.42;101685.41;1731078;82;25727;-60
2021/06/05 00:05:11;;;;;;;20.00;7.47;;;;;;;14.31;66.98;101685.89;1712908;82;25730;-60
2021/06/05 00:07:38;;;;;;;19.48;7.15;;;;;;;14.28;66.84;101685.31;1704493;84;28194;-60
2021/06/05 00:10:13;;;;;;;18.60;6.70;;;;;;;14.30;66.92;101683.34;1701500;83;25721;-59
2021/06/05 00:12:40;;;;;;;21.30;7.37;;;;;;;14.33;66.71;101681.72;1714892;83;25810;-60
2021/06/05 00:15:14;;;;;;;19.02;6.90;;;;;;;14.35;66.64;101675.16;1715072;83;26520;-59
2021/06/05 00:17:40;;;;;;;18.10;6.92;;;;;;;14.37;66.58;101680.43;1715171;83;25823;-60
2021/06/05 00:20:13;;;;;;;17.15;6.62;;;;;;;14.38;66.50;101685.73;1715165;83;27478;-60
2021/06/05 00:22:41;;;;;;;17.87;6.67;;;;;;;14.38;66.55;101680.31;1714960;83;25773;-60
2021/06/05 00:25:13;;;;;;;18.52;6.70;;;;;;;14.39;66.43;101674.38;1714903;83;25895;-60
2021/06/05 00:27:41;;;;;;;21.00;6.85;;;;;;;14.43;66.33;101679.02;1714829;83;44656;-59
2021/06/05 00:30:10;;;;;;;23.27;7.37;;;;;;;14.45;66.41;101672.98;1716435;83;25986;-60
2021/06/05 00:32:36;;;;;;;18.67;6.85;;;;;;;14.47;66.40;101677.25;1717116;83;27520;-60
2021/06/05 00:35:05;;;;;;;23.10;7.33;;;;;;;14.53;66.70;101673.13;1717119;83;25737;-59
2021/06/05 00:37:32;;;;;;;15.55;6.70;;;;;;;14.52;66.82;101673.61;1717112;83;25677;-59
2021/06/05 00:39:59;;;;;;;24.43;7.50;;;;;;;14.53;66.33;101677.19;1717230;83;25806;-59
2021/06/05 00:42:28;;;;;;;12.00;7.17;;;;;;;14.52;66.28;101672.77;1733853;82;25775;-59
2021/06/05 00:44:55;;;;;;;14.38;6.92;;;;;;;14.46;66.13;101671.98;1694087;84;27447;-59
2021/06/05 00:47:22;;;;;;;23.87;7.62;;;;;;;14.38;66.00;101672.67;1724488;82;25747;-59
2021/06/05 00:49:50;;;;;;;18.12;7.67;;;;;;;14.32;65.91;101673.23;1717057;83;26574;-59
2021/06/05 00:52:22;;;;;;;17.90;7.50;;;;;;;14.25;65.96;101672.41;1716895;83;25787;-59
2021/06/05 00:54:50;;;;;;;13.45;7.20;;;;;;;14.20;65.74;101673.34;1717164;83;25768;-59
2021/06/05 00:57:18;;;;;;;17.42;7.80;;;;;;;14.13;65.67;101668.61;1716994;83;27467;-59
2021/06/05 00:59:45;;;;;;;17.82;8.15;;;;;;;14.06;65.83;101671.03;1733657;82;25773;-59
2021/06/05 01:02:13;;;;;;;20.20;7.92;;;;;;;14.00;65.78;101671.55;1733726;82;25710;-59
2021/06/05 01:04:40;;;;;;;17.92;7.08;;;;;;;13.96;65.98;101666.91;1702401;83;25779;-59
2021/06/05 01:07:20;;;;;;;14.47;7.87;;;;;;;13.90;66.25;101664.77;1704555;83;25678;-59
2021/06/05 01:10:00;;;;;;;17.40;7.58;;;;;;;13.81;66.57;101664.23;1704565;83;27449;-59
2021/06/05 01:12:58;;;;;;;14.60;7.42;;;;;;;13.77;66.50;101659.08;1699972;83;25649;-59
2021/06/05 01:15:31;;;;;;;12.00;6.97;;;;;;;13.74;66.75;101658.02;1688752;85;25697;-60
2021/06/05 01:18:09;;;;;;;12.78;6.83;;;;;;;13.69;67.05;101654.00;1704221;84;25798;-60
2021/06/05 01:21:22;;;;;;;16.25;6.78;;;;;;;13.67;67.16;101650.06;1730998;82;27309;-60
2021/06/05 01:24:47;;;;;;;15.83;6.87;;;;;;;13.65;67.42;101647.14;1734146;82;27476;-60
2021/06/05 01:27:26;;;;;;;18.23;6.87;;;;;;;13.63;67.73;101646.44;1733482;82;25525;-60
2021/06/05 01:29:57;;;;;;;12.78;6.90;;;;;;;13.63;67.92;101645.09;1714916;82;25774;-60
2021/06/05 01:32:27;;;;;;;13.53;6.80;;;;;;;13.59;68.09;101642.64;1700515;84;26451;-60
2021/06/05 01:34:57;;;;;;;12.23;6.37;;;;;;;13.59;68.12;101639.06;1678876;84;25844;-60
2021/06/05 01:37:27;;;;;;;13.75;6.60;;;;;;;13.53;68.82;101636.44;1700619;84;27489;-60
2021/06/05 01:40:09;;;;;;;14.70;6.62;;;;;;;13.49;68.48;101639.03;1700308;84;26338;-60
2021/06/05 01:42:38;;;;;;;16.97;7.60;;;;;;;13.49;68.62;101643.59;1700223;84;25829;-60
2021/06/05 01:45:11;;;;;;;15.93;6.72;;;;;;;13.47;68.33;101639.65;1702094;83;26472;-60
2021/06/05 01:47:39;;;;;;;19.92;6.47;;;;;;;13.46;68.69;101644.69;1700597;83;25872;-60
2021/06/05 01:50:13;;;;;;;13.25;6.22;;;;;;;13.44;68.71;101644.00;1700342;83;28232;-60
2021/06/05 01:52:42;;;;;;;15.70;6.20;;;;;;;13.41;68.26;101645.60;1700365;84;25703;-59
2021/06/05 01:55:27;;;;;;;19.42;6.70;;;;;;;13.40;68.71;101648.78;1704935;84;25734;-60
2021/06/05 01:58:00;;;;;;;20.27;7.05;;;;;;;13.42;68.64;101649.52;1704241;82;25793;-60
2021/06/05 02:00:35;;;;;;;16.80;6.80;;;;;;;13.45;68.44;101647.91;1702622;84;26576;-60
2021/06/05 02:03:05;;;;;;;17.23;7.78;;;;;;;13.49;68.39;101649.00;1698453;83;28336;-59
2021/06/05 02:05:35;;;;;;;15.45;6.55;;;;;;;13.53;68.23;101646.38;1694308;84;25847;-60
2021/06/05 02:08:05;;;;;;;14.15;6.75;;;;;;;13.56;68.13;101648.81;1705690;82;25776;-60
2021/06/05 02:10:35;;;;;;;12.18;6.70;;;;;;;13.54;67.75;101650.80;1704469;82;25806;-60
2021/06/05 02:13:07;;;;;;;12.95;7.05;;;;;;;13.48;67.73;101651.34;1704393;82;25773;-60
2021/06/05 02:15:55;;;;;;;23.90;7.17;;;;;;;13.43;67.90;101652.58;1703166;83;27637;-60
2021/06/05 02:18:28;;;;;;;9.03;5.30;;;;;;;13.37;67.60;101655.80;1704380;82;25810;-60
2021/06/05 02:21:11;;;;;;;16.23;6.75;;;;;;;13.27;67.56;101654.87;1704693;83;25696;-60
2021/06/05 02:23:47;;;;;;;14.43;6.30;;;;;;;13.18;67.44;101657.02;1704458;84;26170;-60
2021/06/05 02:26:20;;;;;;;17.05;6.50;;;;;;;13.09;67.66;101654.11;1704862;83;25545;-60
2021/06/05 02:28:52;;;;;;;10.28;6.42;;;;;;;13.05;67.86;101658.05;1704707;83;26898;-59
2021/06/05 02:31:21;;;;;;;16.97;7.45;;;;;;;12.99;68.27;101663.51;1703831;82;25749;-60
2021/06/05 02:33:49;;;;;;;13.68;6.40;;;;;;;12.94;68.25;101661.67;1712262;83;25658;-59
2021/06/05 02:36:18;;;;;;;18.27;6.58;;;;;;;12.89;68.28;101658.52;1704786;83;26563;-59
2021/06/05 02:38:49;;;;;;;13.00;6.90;;;;;;;12.84;68.86;101660.25;1704436;84;25493;-59
2021/06/05 02:41:22;;;;;;;23.20;7.25;;;;;;;12.76;69.10;101661.88;1704486;84;28236;-59
2021/06/05 02:43:53;;;;;;;13.32;6.55;;;;;;;12.73;69.08;101660.29;1704682;84;25817;-60
2021/06/05 02:46:30;;;;;;;10.50;6.05;;;;;;;12.74;69.12;101659.78;1704570;83;25679;-59
2021/06/05 02:49:20;;;;;;;10.80;5.83;;;;;;;12.77;69.55;101665.81;1704552;83;26482;-59
2021/06/05 02:51:52;;;;;;;16.80;7.50;;;;;;;12.77;70.55;101663.59;1704497;83;25881;-60
2021/06/05 02:54:22;;;;;;;;;;;;;;;12.72;70.01;101660.43;1707316;83;27404;-60
2021/06/05 02:56:52;;;;;;;22.35;8.45;;;;;;;12.73;69.75;101665.69;1704495;83;25821;-60
2021/06/05 02:59:20;;;;;;;16.82;5.90;;;;;;;12.75;70.01;101659.68;1704787;84;25799;-59
2021/06/05 03:01:51;;;;;;;17.62;6.53;;;;;;;12.80;70.14;101664.19;1704515;83;26136;-59
2021/06/05 03:04:20;;;;;;;11.30;6.17;;;;;;;12.87;70.24;101662.30;1680863;84;25770;-60
2021/06/05 03:06:50;;;;;;;16.97;7.00;;;;;;;12.91;70.63;101658.38;1704058;84;28351;-59
2021/06/05 03:09:19;;;;;;;18.17;5.62;;;;;;;12.94;70.10;101660.83;1704646;84;25766;-59
2021/06/05 03:11:49;;;;;;;12.53;6.40;;;;;;;12.99;69.94;101662.16;1704465;83;25731;-59
2021/06/05 03:14:16;;;;;;;17.07;7.62;;;;;;;12.99;70.11;101663.51;1692446;84;25836;-59
2021/06/05 03:16:46;;;;;;;13.18;6.05;;;;;;;13.03;70.10;101654.64;1704634;83;25737;-60
2021/06/05 03:19:14;;;;;;;18.57;6.87;;;;;;;13.11;70.22;101666.12;1704534;84;27437;-59
2021/06/05 03:21:42;;;;;;;21.65;6.53;;;;;;;13.18;70.51;101659.72;1704391;84;26291;-60
2021/06/05 03:24:23;;;;;;;23.15;6.67;;;;;;;13.23;70.53;101657.45;1704801;84;25830;-60
2021/06/05 03:26:55;;;;;;;18.05;6.75;;;;;;;13.20;70.11;101652.34;1704570;84;25787;-59
2021/06/05 03:29:24;;;;;;;15.78;6.55;;;;;;;13.25;70.63;101655.02;1704474;84;25793;-60
2021/06/05 03:31:53;;;;;;;16.15;6.35;;;;;;;13.26;70.13;101654.03;1705748;84;27345;-59
2021/06/05 03:34:21;;;;;;;18.15;6.12;;;;;;;13.34;70.47;101651.99;1775565;80;25836;-59
2021/06/05 03:36:49;;;;;;;14.50;6.33;;;;;;;13.39;70.33;101657.91;1775187;80;25694;-59
2021/06/05 03:39:18;;;;;;;21.87;6.60;;;;;;;13.49;70.73;101652.55;1775554;80;25925;-59
2021/06/05 03:41:46;;;;;;;13.03;6.97;;;;;;;13.54;70.29;101652.98;1755775;80;25762;-59
2021/06/05 03:44:14;;;;;;;14.47;7.30;;;;;;;13.57;70.19;101655.44;1739595;82;28277;-60
2021/06/05 03:46:42;;;;;;;27.22;7.58;;;;;;;13.57;69.84;101649.19;1767753;80;25793;-60
2021/06/05 03:49:10;;;;;;;22.55;6.75;;;;;;;13.64;69.86;101655.76;1775528;80;25482;-59
2021/06/05 03:51:37;;;;;;;20.65;6.45;;;;;;;13.66;70.09;101655.13;1775327;80;25778;-59
2021/06/05 03:54:07;;;;;;;21.55;7.00;;;;;;;13.69;69.87;101654.84;1775203;80;25802;-59
2021/06/05 03:56:35;;;;;;;16.67;7.45;;;;;;;13.68;69.59;101654.48;1749126;80;27465;-60
2021/06/05 03:59:04;;;;;;;18.07;7.72;;;;;;;13.71;69.63;101656.92;1775240;80;25759;-61
2021/06/05 04:01:32;;;;;;;17.75;8.28;;;;;;;13.76;69.70;101653.30;1749037;80;25725;-58
2021/06/05 04:03:59;;;;;;;27.10;8.63;;;;;;;13.82;69.45;101656.48;1744421;80;26361;-59
2021/06/05 04:06:27;;;;;;;14.15;7.65;;;;;;;13.86;69.29;101653.36;1744498;81;25736;-59
2021/06/05 04:08:58;;;;;;;15.03;6.87;;;;;;;13.93;69.13;101655.88;1744598;81;28123;-59
2021/06/05 04:11:28;;;;;;;20.75;8.33;;;;;;;13.97;68.82;101649.70;1744480;82;25479;-60
2021/06/05 04:13:57;;;;;;;15.10;7.20;;;;;;;14.02;68.52;101648.80;1744129;81;25686;-59
2021/06/05 04:16:24;;;;;;;26.40;7.87;;;;;;;14.07;68.36;101650.59;1771427;80;25777;-59
2021/06/05 04:18:51;;;;;;;20.02;7.47;;;;;;;14.11;68.18;101655.22;1775289;80;26769;-59
2021/06/05 04:21:21;;;;;;;20.90;6.75;;;;;;;14.15;67.79;101659.86;1775119;80;27488;-59
2021/06/05 04:23:48;;;;;;;27.98;8.23;;;;;;;14.18;68.24;101652.32;1773901;80;25675;-60
2021/06/05 04:26:15;;;;;;;19.62;7.40;;;;;;;14.26;67.94;101647.58;1773691;80;25702;-60
2021/06/05 04:28:43;;;;;;;20.37;8.13;;;;;;;14.35;67.73;101645.39;1773904;80;25739;-60
2021/06/05 04:31:11;;;;;;;26.42;9.18;;;;;;;14.45;67.62;101646.75;1774655;80;25740;-60
2021/06/05 04:33:39;;;;;;;23.05;8.60;;;;;;;14.51;67.25;101648.04;1775671;80;27433;-60
2021/06/05 04:36:10;;;;;;;27.05;7.35;;;;;;;14.55;66.88;101649.48;1775282;80;25750;-60
2021/06/05 04:38:40;;;;;;;21.12;8.30;;;;;;;14.65;66.66;101649.00;1775640;80;25540;-60
2021/06/05 04:41:10;;;;;;;21.25;7.78;;;;;;;14.81;66.26;101646.25;1767432;80;25786;-60
2021/06/05 04:43:38;;;;;;;21.80;8.05;;;;;;;14.93;66.17;101643.73;1744571;82;25886;-60
2021/06/05 04:46:07;;;;;;;17.17;6.97;;;;;;;15.05;65.71;101645.81;1774017;80;27479;-61
2021/06/05 04:48:35;;;;;;;28.07;7.60;;;;;;;15.16;65.54;101637.50;1775090;80;27125;-59
2021/06/05 04:51:05;;;;;;;17.05;6.30;;;;;;;15.27;65.31;101635.15;1775342;80;25731;-60
2021/06/05 04:53:33;;;;;;;22.15;6.40;;;;;;;15.37;64.28;101636.47;1775403;80;26637;-60
2021/06/05 04:56:01;;;;;;;25.05;8.08;;;;;;;15.46;64.03;101633.39;1774903;80;25815;-60
2021/06/05 04:58:28;;;;;;;14.15;7.65;;;;;;;15.52;63.64;101632.80;1775578;80;27495;-60
2021/06/05 05:00:56;;;;;;;21.42;6.65;;;;;;;15.60;63.38;101635.62;1775297;80;25699;-60
2021/06/05 05:03:26;;;;;;;11.45;5.90;;;;;;;15.64;62.83;101635.66;1733132;81;25643;-60
2021/06/05 05:05:57;;;;;;;16.12;5.15;;;;;;;15.72;62.88;101636.80;1733476;82;25722;-60
2021/06/05 05:08:24;;;;;;;17.00;5.05;;;;;;;15.80;61.27;101630.12;1733251;82;25963;-60
2021/06/05 05:10:53;;;;;;;19.95;5.53;;;;;;;15.86;60.95;101629.55;1733299;82;28288;-60
2021/06/05 05:13:25;;;;;;;19.65;6.10;;;;;;;15.92;60.95;101628.94;1733145;82;25761;-60
2021/06/05 05:15:54;;;;;;;14.87;5.33;;;;;;;15.96;61.01;101633.07;1733575;82;25715;-60
2021/06/05 05:18:23;;;;;;;17.02;5.97;;;;;;;15.99;60.58;101626.48;1733028;82;25796;-59
2021/06/05 05:20:52;;;;;;;16.50;5.97;;;;;;;16.07;60.58;101625.73;1733339;82;26368;-60
2021/06/05 05:23:22;;;;;;;22.75;6.30;;;;;;;16.11;60.25;101629.84;1733122;82;28173;-60
2021/06/05 05:25:49;;;;;;;15.38;5.20;;;;;;;16.18;60.16;101622.78;1709840;83;25802;-60
2021/06/05 05:28:17;;;;;;;12.07;5.25;;;;;;;16.24;60.12;101617.25;1732462;82;25811;-61
2021/06/05 05:30:49;;;;;;;14.03;5.45;;;;;;;16.28;59.86;101621.39;1775261;80;26493;-60
2021/06/05 05:33:17;;;;;;;19.23;5.70;;;;;;;16.31;57.94;101622.45;1775638;80;25777;-60
2021/06/05 05:35:45;;;;;;;20.80;5.85;;;;;;;16.36;57.87;101612.48;1775748;80;28130;-59
2021/06/05 05:38:13;;;;;;;15.48;5.05;;;;;;;16.40;58.11;101622.02;1775570;80;25946;-60
2021/06/05 05:40:42;;;;;;;14.50;5.12;;;;;;;16.46;57.85;101618.67;1776588;80;25486;-60
2021/06/05 05:43:11;;;;;;;17.42;6.25;;;;;;;16.51;57.98;101610.94;1785587;80;25817;-59
2021/06/05 05:45:39;;;;;;;11.45;5.55;;;;;;;16.55;58.40;101605.52;1775595;80;25896;-60
2021/06/05 05:48:10;;;;;;;12.35;5.90;;;;;;;16.59;57.36;101613.72;1775553;80;27392;-61
2021/06/05 05:50:40;;;;;;;10.53;5.25;;;;;;;16.65;57.73;101606.82;1733865;82;25743;-60
2021/06/05 05:53:09;;;;;;;22.45;5.20;;;;;;;16.72;57.48;101608.39;1733792;82;25765;-60
2021/06/05 05:55:37;;;;;;;12.13;5.65;;;;;;;16.82;56.94;101606.44;1733680;82;25746;-60
2021/06/05 05:58:07;;;;;;;20.72;9.65;;;;;;;16.95;57.25;101610.66;1733545;82;25828;-61
2021/06/05 06:00:38;;;;;;;14.98;6.17;;;;;;;17.11;56.96;101605.86;1733143;82;28208;-61
2021/06/05 06:03:05;;;;;;;19.40;6.83;;;;;;;17.30;56.45;101603.42;1695691;82;25729;-60
2021/06/05 06:05:34;;;;;;;12.82;6.22;;;;;;;17.48;56.00;101601.50;1707647;83;25816;-60
2021/06/05 06:08:03;;;;;;;16.87;6.45;;;;;;;17.62;55.84;101604.61;1697332;83;25819;-60
2021/06/05 06:10:30;;;;;;;12.30;5.80;;;;;;;17.72;54.81;101605.34;1717442;83;25907;-61
2021/06/05 06:12:58;;;;;;;17.05;5.55;;;;;;;17.84;55.34;101609.49;1733938;82;27518;-60
2021/06/05 06:15:28;;;;;;;12.50;5.65;;;;;;;17.96;54.94;101601.07;1733938;82;26290;-60
2021/06/05 06:18:00;;;;;;;21.52;5.75;;;;;;;18.11;54.83;101602.63;1733822;82;25467;-60
2021/06/05 06:20:42;;;;;;;13.20;5.70;;;;;;;18.29;54.46;101602.52;1733676;82;25800;-59
2021/06/05 06:23:19;;;;;;;16.57;5.17;;;;;;;18.43;53.85;101601.84;1733930;82;25697;-59
2021/06/05 06:25:49;;;;;;;17.67;6.58;;;;;;;18.54;53.99;101595.24;1733829;82;27481;-59
2021/06/05 06:28:18;;;;;;;11.40;5.53;;;;;;;18.68;53.62;101593.72;1733823;82;25938;-59
2021/06/05 06:30:46;;;;;;;10.20;5.58;;;;;;;18.76;53.23;101593.72;1716932;82;25714;-59
2021/06/05 06:33:15;;;;;;;15.78;4.95;;;;;;;18.87;52.98;101595.24;1775308;80;25769;-59
2021/06/05 06:35:42;;;;;;;13.70;5.15;;;;;;;18.97;52.78;101589.63;1775269;80;25651;-59
2021/06/05 06:38:15;;;;;;;11.03;5.12;;;;;;;19.05;52.71;101598.33;1775539;80;26921;-59
2021/06/05 06:40:43;;;;;;;14.30;5.25;;;;;;;19.18;52.61;101594.58;1772774;80;25939;-59
2021/06/05 06:43:19;;;;;;;13.88;5.28;;;;;;;19.29;52.20;101589.75;1750083;80;25736;-59
2021/06/05 06:45:46;;;;;;;18.98;4.92;;;;;;;19.32;51.92;101592.14;1774554;80;25877;-59
2021/06/05 06:48:13;;;;;;;21.15;5.20;;;;;;;19.33;51.12;101585.66;1775318;80;25746;-59
2021/06/05 06:50:41;;;;;;;16.55;4.62;;;;;;;19.40;51.62;101583.94;1775706;80;27398;-59
2021/06/05 06:53:08;;;;;;;14.53;4.90;;;;;;;19.38;50.76;101579.16;1775416;80;25793;-59
2021/06/05 06:55:36;;;;;;;14.50;4.87;;;;;;;19.39;50.45;101579.00;1775593;80;25682;-60
2021/06/05 06:58:03;;;;;;;19.12;4.17;;;;;;;19.46;51.08;101574.20;1775373;80;25794;-60
2021/06/05 07:00:38;;;;;;;11.75;4.12;;;;;;;19.51;50.74;101574.02;1733844;82;25975;-60
2021/06/05 07:03:06;;;;;;;22.70;5.00;;;;;;;19.58;49.87;101578.27;1773686;80;28350;-60
2021/06/05 07:05:33;;;;;;;10.58;4.28;;;;;;;19.71;50.06;101584.00;1763745;80;25762;-60
2021/06/05 07:08:30;;;;;;;13.45;4.83;;;;;;;19.77;50.00;101574.75;1706291;82;25740;-60
2021/06/05 07:11:02;;;;;;;10.43;4.58;;;;;;;19.91;49.57;101575.41;1760359;80;25770;-60
2021/06/05 07:13:30;;;;;;;17.25;4.53;;;;;;;20.08;49.98;101567.12;1709531;82;25978;-61
2021/06/05 07:15:58;;;;;;;12.95;4.65;;;;;;;20.20;49.56;101571.66;1733435;82;27443;-61
2021/06/05 07:18:29;;;;;;;10.45;4.53;;;;;;;20.25;49.34;101571.98;1733337;82;25518;-61
2021/06/05 07:20:56;;;;;;;21.05;5.53;;;;;;;20.32;48.84;101568.33;1733564;82;25761;-61
2021/06/05 07:23:26;;;;;;;15.38;5.30;;;;;;;20.40;49.22;101578.86;1706086;82;25835;-61
2021/06/05 07:25:56;;;;;;;23.55;6.35;;;;;;;20.47;49.31;101581.22;1704397;82;25635;-62
2021/06/05 07:28:33;;;;;;;18.17;5.85;;;;;;;20.52;48.46;101576.58;1714588;82;27451;-61
2021/06/05 07:31:03;;;;;;;18.20;6.20;;;;;;;20.49;48.12;101580.00;1733068;82;25794;-61
2021/06/05 07:33:30;;;;;;;19.45;5.97;;;;;;;20.67;48.63;101569.77;1733219;82;25764;-61
2021/06/05 07:35:58;;;;;;;15.28;5.90;;;;;;;20.83;48.20;101574.28;1733201;82;25832;-61
2021/06/05 07:38:27;;;;;;;16.05;5.53;;;;;;;20.96;47.88;101574.52;1733294;82;25970;-61
2021/06/05 07:40:56;;;;;;;15.10;5.67;;;;;;;21.13;47.70;101575.18;1733100;82;27459;-61
2021/06/05 07:43:28;;;;;;;16.80;5.35;;;;;;;21.19;46.90;101568.98;1732998;82;25807;-61
2021/06/05 07:45:56;;;;;;;14.98;5.42;;;;;;;21.14;47.01;101563.73;1733247;82;26495;-60
2021/06/05 07:48:25;;;;;;;13.95;5.37;;;;;;;21.13;47.44;101564.77;1733179;82;25760;-61
2021/06/05 07:50:53;;;;;;;19.90;6.45;;;;;;;21.17;47.45;101560.61;1733252;82;25777;-61
2021/06/05 07:53:21;;;;;;;18.80;5.45;;;;;;;21.16;47.61;101557.03;1733149;82;27466;-61
2021/06/05 07:55:48;;;;;;;14.28;4.83;;;;;;;21.04;46.97;101552.55;1732975;82;25849;-61
2021/06/05 07:58:16;;;;;;;16.52;5.25;;;;;;;21.08;47.20;101550.28;1733214;82;25766;-59
2021/06/05 08:00:43;;;;;;;9.18;4.37;;;;;;;21.02;46.88;101552.41;1733212;82;26180;-59
2021/06/05 08:03:10;;;;;;;9.68;5.35;;;;;;;20.98;46.57;101557.91;1733335;82;25672;-59
2021/06/05 08:05:40;;;;;;;15.85;5.70;;;;;;;20.88;46.88;101556.28;1732436;82;27538;-62
2021/06/05 08:08:10;;;;;;;18.30;5.83;;;;;;;20.83;47.12;101549.67;1733119;82;25661;-61
2021/06/05 08:10:39;;;;;;;13.80;5.35;;;;;;;20.83;47.50;101539.59;1724750;82;25780;-62
2021/06/05 08:13:07;;;;;;;12.07;4.65;;;;;;;20.82;47.49;101535.66;1701207;82;25872;-60
2021/06/05 08:15:39;;;;;;;14.10;6.05;;;;;;;20.84;47.99;101539.94;1716335;82;25772;-59
2021/06/05 08:18:07;;;;;;;23.57;6.22;;;;;;;20.86;47.82;101535.64;1704608;82;27417;-60
2021/06/05 08:20:39;;;;;;;20.27;5.50;;;;;;;20.97;47.77;101535.69;1704071;82;25466;-60
2021/06/05 08:23:07;;;;;;;15.48;5.08;;;;;;;21.04;47.22;101533.91;1709487;82;25888;-60
2021/06/05 08:25:35;;;;;;;11.25;4.42;;;;;;;21.07;47.27;101528.91;1700992;83;26196;-62
2021/06/05 08:28:02;;;;;;;16.75;4.85;;;;;;;21.15;47.03;101523.04;1696628;83;25886;-61
2021/06/05 08:30:38;;;;;;;8.25;4.20;;;;;;;21.23;47.35;101527.88;1707856;82;27498;-61
2021/06/05 08:33:07;;;;;;;14.35;5.00;;;;;;;21.34;46.93;101524.34;1775095;80;25666;-61
2021/06/05 08:35:35;;;;;;;10.75;4.25;;;;;;;21.45;46.78;101518.91;1775416;80;25741;-61
2021/06/05 08:38:05;;;;;;;8.60;3.50;;;;;;;21.53;45.45;101519.66;1775740;79;26551;-62
2021/06/05 08:40:52;;;;;;;9.25;4.22;;;;;;;21.74;46.26;101526.25;1777561;79;25638;-62
2021/06/05 08:43:30;;;;;;;9.60;4.20;;;;;;;21.92;45.38;101520.90;1766200;79;27474;-61
2021/06/05 08:46:01;;;;;;;11.25;3.47;;;;;;;22.19;45.19;101524.75;1744760;79;25872;-61
2021/06/05 08:48:29;;;;;;;17.27;3.70;;;;;;;22.48;43.65;101522.42;1778317;79;25673;-61
2021/06/05 08:51:10;;;;;;;10.05;4.45;;;;;;;22.68;43.30;101514.89;1783168;79;25739;-61
2021/06/05 08:53:37;;;;;;;9.68;4.15;;;;;;;22.91;42.92;101511.04;1741965;81;25847;-60
2021/06/05 08:56:10;;;;;;;11.53;4.03;;;;;;;23.16;42.57;101505.09;1775639;79;27371;-60
2021/06/05 08:58:48;;;;;;;11.80;3.83;;;;;;;23.23;42.02;101504.09;1775492;79;25979;-62
2021/06/05 09:01:26;;;;;;;21.65;4.17;;;;;;;23.28;41.17;101498.00;1755737;80;26124;-62
2021/06/05 09:03:58;;;;;;;10.65;3.77;;;;;;;23.25;40.83;101494.31;1745886;80;26155;-60
2021/06/05 09:06:45;;;;;;;10.55;3.60;;;;;;;23.40;41.29;101497.75;1773744;80;25787;-60
2021/06/05 09:09:17;;;;;;;7.83;3.55;;;;;;;23.57;41.64;101485.91;1775031;80;27395;-60
2021/06/05 09:11:44;;;;;;;11.75;4.25;;;;;;;23.85;40.99;101484.91;1775163;80;25724;-61
2021/06/05 09:14:11;;;;;;;12.05;3.40;;;;;;;24.14;40.36;101487.55;1733366;82;25636;-61
2021/06/05 09:16:48;;;;;;;17.95;3.30;;;;;;;24.32;40.70;101487.78;1733287;82;25824;-61
2021/06/05 09:19:28;;;;;;;14.23;2.98;;;;;;;24.59;41.05;101486.41;1733165;82;26360;-64
2021/06/05 09:22:07;;;;;;;10.72;3.10;;;;;;;24.73;38.32;101479.53;1773144;80;27876;-61
2021/06/05 09:24:52;;;;;;;11.83;4.03;;;;;;;24.94;37.76;101478.44;1771051;80;25901;-61
2021/06/05 09:27:25;;;;;;;18.98;3.75;;;;;;;25.22;38.63;101469.05;1774188;80;25675;-61
2021/06/05 09:30:03;;;;;;;15.83;2.57;;;;;;;25.58;36.42;101464.89;1774844;80;26168;-61
2021/06/05 09:32:38;;;;;;;13.00;2.60;;;;;;;25.86;34.60;101467.81;1775042;79;26034;-61
2021/06/05 09:35:14;;;;;;;12.05;2.27;;;;;;;26.15;33.43;101461.41;1769118;80;27465;-61
2021/06/05 09:37:56;;;;;;;4.08;2.35;;;;;;;26.52;32.60;101455.45;1775253;80;25758;-61
2021/06/05 09:40:35;;;;;;;5.92;2.30;;;;;;;26.82;31.66;101452.54;1776004;80;25825;-61
2021/06/05 09:43:18;;;;;;;6.75;2.52;;;;;;;27.12;31.42;101451.23;1775256;80;26461;-61
2021/06/05 09:45:48;;;;;;;;;;;;;;;27.45;30.71;101450.03;1777980;80;25850;-62
2021/06/05 09:48:32;;;;;;;11.08;2.40;;;;;;;27.85;28.89;101453.28;1745705;80;28219;-61
2021/06/05 09:51:04;;;;;;;5.55;2.40;;;;;;;28.09;29.78;101444.55;1775599;80;25790;-61
2021/06/05 09:53:39;;;;;;;15.40;2.27;;;;;;;28.14;29.31;101437.78;1775789;80;25809;-61
2021/06/05 09:56:17;;;;;;;7.97;2.47;;;;;;;28.29;28.96;101437.30;1774993;80;25785;-61
2021/06/05 09:58:46;;;;;;;9.15;2.47;;;;;;;28.20;29.55;101440.97;1775915;80;25707;-61
2021/06/05 10:01:26;;;;;;;6.33;2.33;;;;;;;27.95;29.41;101442.50;1774197;80;27468;-61
2021/06/05 10:04:10;;;;;;;9.13;2.65;;;;;;;28.12;28.58;101433.02;1772761;80;26152;-61
2021/06/05 10:06:52;;;;;;;11.85;2.22;;;;;;;28.52;28.12;101431.48;1706469;83;25784;-61
2021/06/05 10:09:30;;;;;;;12.00;2.62;;;;;;;29.05;28.32;101427.72;1758817;81;25805;-62
2021/06/05 10:12:06;;;;;;;6.22;2.35;;;;;;;29.51;26.69;101420.89;1706447;82;25785;-61
2021/06/05 10:14:44;;;;;;;5.87;2.05;;;;;;;29.17;26.99;101432.39;1760368;81;28102;-62
2021/06/05 10:17:28;;;;;;;8.80;2.77;;;;;;;28.86;27.34;101428.95;1706722;82;25609;-62
2021/06/05 10:20:12;;;;;;;4.72;2.08;;;;;;;28.70;27.34;101426.34;1775450;80;25754;-62
2021/06/05 10:22:40;;;;;;;2.17;1.25;;;;;;;28.88;27.72;101426.80;1756121;80;25963;-62
2021/06/05 10:25:18;;;;;;;7.97;2.00;;;;;;;29.65;22.53;101414.50;1744529;82;25782;-62
2021/06/05 10:27:47;;;;;;;16.05;2.80;;;;;;;30.32;24.28;101411.22;1744256;81;27465;-62
2021/06/05 10:30:31;;;;;;;7.25;2.45;;;;;;;30.98;24.83;101413.27;1757721;80;25711;-62
2021/06/05 10:33:00;;;;;;;8.68;1.87;;;;;;;30.79;24.52;101413.60;1775350;80;25765;-62
2021/06/05 10:35:38;;;;;;;9.18;2.20;;;;;;;31.12;23.18;101403.48;1777468;80;26562;-62
2021/06/05 10:38:21;;;;;;;9.28;1.82;;;;;;;31.32;22.39;101401.48;1733705;82;26412;-62
2021/06/05 10:40:51;;;;;;;10.75;2.47;;;;;;;31.60;21.91;101392.59;1729903;82;27475;-62
2021/06/05 10:43:18;;;;;;;9.03;1.92;;;;;;;32.13;22.40;101391.43;1698282;84;25796;-62
2021/06/05 10:45:50;;;;;;;2.37;1.70;;;;;;;32.48;20.25;101395.30;1698685;83;25775;-62
2021/06/05 10:48:28;;;;;;;10.53;2.00;;;;;;;33.07;20.42;101389.47;1734059;82;25780;-62
2021/06/05 10:51:09;;;;;;;4.37;1.55;;;;;;;33.75;20.46;101382.10;1733558;82;25768;-62
2021/06/05 10:53:53;;;;;;;7.12;2.22;;;;;;;34.33;19.56;101379.01;1711133;82;27445;-62
2021/06/05 10:56:38;;;;;;;5.80;1.45;;;;;;;34.53;19.14;101373.67;1733640;82;26422;-62
2021/06/05 10:59:13;;;;;;;5.08;1.25;;;;;;;34.70;18.48;101371.38;1733333;82;25766;-62
2021/06/05 11:01:45;;;;;;;6.60;2.77;;;;;;;34.95;18.02;101362.08;1730420;82;25933;-62
2021/06/05 11:04:34;;;;;;;9.78;1.80;;;;;;;35.46;18.71;101362.09;1733864;82;26113;-62
2021/06/05 11:07:15;;;;;;;7.67;2.20;;;;;;;36.02;18.15;101358.00;1727497;83;27519;-62
2021/06/05 11:09:50;;;;;;;7.28;1.82;;;;;;;36.44;18.21;101353.68;1714745;83;25846;-61
2021/06/05 11:12:27;;;;;;;8.85;2.27;;;;;;;36.98;16.50;101354.14;1715692;83;25859;-62
2021/06/05 11:14:56;;;;;;;6.15;2.22;;;;;;;37.11;17.53;101350.02;1715261;83;25809;-61
2021/06/05 11:17:38;;;;;;;5.22;1.80;;;;;;;37.56;17.09;101362.83;1733874;82;25831;-62
2021/06/05 11:20:20;;;;;;;13.28;2.65;;;;;;;37.68;16.47;101353.38;1734029;82;28275;-62
2021/06/05 11:23:00;;;;;;;3.75;1.67;;;;;;;37.34;14.96;101352.20;1733622;82;25697;-62
2021/06/05 11:25:40;;;;;;;4.42;1.50;;;;;;;35.57;16.02;101346.33;1733581;82;25762;-61
2021/06/05 11:28:28;;;;;;;13.98;2.25;;;;;;;34.35;17.26;101357.77;1732538;82;25779;-62
2021/06/05 11:30:56;;;;;;;5.12;1.80;;;;;;;33.64;18.67;101351.98;1731649;82;25780;-61
2021/06/05 11:33:43;;;;;;;6.33;1.90;;;;;;;33.07;19.04;101342.66;1737324;82;27469;-61
2021/06/05 11:36:44;;;;;;;6.65;1.80;;;;;;;32.45;19.55;101344.61;1741831;82;26055;-61
2021/06/05 11:39:25;;;;;;;7.95;2.20;;;;;;;31.92;20.38;101339.50;1741555;82;25774;-61
2021/06/05 11:42:07;;;;;;;2.72;1.52;;;;;;;31.71;20.99;101341.28;1741890;81;26434;-62